Time;durP1;ratioP1;P1;durP2;ratioP2;P2;SDS_P1;SDS_P2;PMS_P1;PMS_P2;Temp;Humidity;BMP_temperature;BMP_pressure;BME280_temperature;BME280_humidity;BME280_pressure;Samples;Min_cycle;Max_cycle;Signal;HPM_P1;HPM_P2
2022/01/30 00:01:46;;;;;;;17.52;4.88;;;6.70;95.60;;;;;;5033843;28;20232;-60
2022/01/30 00:04:13;;;;;;;22.17;6.13;;;6.70;95.50;;;;;;5033499;28;20269;-62
2022/01/30 00:06:42;;;;;;;11.63;3.30;;;6.70;95.20;;;;;;5033856;28;20207;-62
2022/01/30 00:09:16;;;;;;;13.55;3.80;;;6.80;94.70;;;;;;5034569;28;20217;-61
2022/01/30 00:11:47;;;;;;;10.57;2.65;;;6.80;94.50;;;;;;5034904;28;20194;-61
2022/01/30 00:14:17;;;;;;;12.82;4.57;;;6.80;94.50;;;;;;5033995;28;20312;-61
2022/01/30 00:16:44;;;;;;;12.25;3.55;;;6.70;94.20;;;;;;5033878;28;20202;-61
2022/01/30 00:19:19;;;;;;;15.70;3.45;;;6.70;94.10;;;;;;5034061;28;20199;-61
2022/01/30 00:21:52;;;;;;;5.43;1.92;;;6.70;94.20;;;;;;5034250;28;20192;-61
2022/01/30 00:24:25;;;;;;;17.20;3.85;;;6.70;94.20;;;;;;5035385;28;20206;-60
2022/01/30 00:26:52;;;;;;;14.45;3.78;;;6.70;93.90;;;;;;5038815;28;20194;-62
2022/01/30 00:29:20;;;;;;;10.10;3.85;;;6.70;93.80;;;;;;5037918;28;20206;-62
2022/01/30 00:31:47;;;;;;;11.68;3.50;;;6.70;93.80;;;;;;5037371;28;20206;-61
2022/01/30 00:34:14;;;;;;;15.32;2.90;;;6.60;93.90;;;;;;5037234;28;20323;-61
2022/01/30 00:36:41;;;;;;;13.57;2.75;;;6.60;93.80;;;;;;5037984;28;20203;-61
2022/01/30 00:39:10;;;;;;;12.95;4.28;;;6.60;93.60;;;;;;5037242;28;20209;-61
2022/01/30 00:41:37;;;;;;;8.35;3.03;;;6.70;93.20;;;;;;5036974;28;20233;-62
2022/01/30 00:44:04;;;;;;;14.88;3.67;;;6.70;93.30;;;;;;5036713;28;20225;-61
2022/01/30 00:46:31;;;;;;;6.20;2.17;;;6.70;93.70;;;;;;5036410;28;20202;-62
2022/01/30 00:48:58;;;;;;;16.17;3.88;;;6.70;93.30;;;;;;5036562;28;20202;-62
2022/01/30 00:51:25;;;;;;;19.67;4.32;;;6.70;93.30;;;;;;5036523;28;20551;-61
2022/01/30 00:53:52;;;;;;;16.27;3.50;;;6.70;93.40;;;;;;5036557;28;20585;-61
2022/01/30 00:56:21;;;;;;;14.38;3.83;;;6.70;93.60;;;;;;5036305;28;20214;-61
2022/01/30 00:58:48;;;;;;;19.13;4.45;;;6.70;93.80;;;;;;5037272;28;20214;-61
2022/01/30 01:01:15;;;;;;;15.38;3.15;;;6.60;93.90;;;;;;5036122;28;20198;-61
2022/01/30 01:03:42;;;;;;;14.75;3.47;;;6.60;94.30;;;;;;5036537;28;20227;-62
2022/01/30 01:06:09;;;;;;;9.95;2.30;;;6.60;94.90;;;;;;5036014;28;20670;-62
2022/01/30 01:08:49;;;;;;;6.72;2.53;;;6.50;95.60;;;;;;5035951;28;20209;-62
2022/01/30 01:11:41;;;;;;;16.38;3.75;;;6.30;98.00;;;;;;5036308;28;20194;-62
2022/01/30 01:20:49;;;;;;;12.65;2.95;;;5.80;99.90;;;;;;5035769;28;20313;-61
2022/01/30 01:25:12;;;;;;;7.35;3.38;;;5.10;99.90;;;;;;5036106;28;20177;-62
2022/01/30 01:27:39;;;;;;;17.30;4.13;;;5.10;99.90;;;;;;5035708;28;20203;-62
2022/01/30 01:30:09;;;;;;;10.45;2.65;;;5.10;99.90;;;;;;5035493;28;20206;-61
2022/01/30 01:32:36;;;;;;;18.77;4.18;;;5.10;99.90;;;;;;5035376;28;20340;-61
2022/01/30 01:35:04;;;;;;;12.90;3.60;;;5.20;99.90;;;;;;5036088;28;20229;-62
2022/01/30 01:37:31;;;;;;;10.30;3.38;;;5.20;99.90;;;;;;5034950;28;20666;-62
2022/01/30 01:39:58;;;;;;;17.50;3.20;;;5.30;99.90;;;;;;5035595;28;20198;-62
2022/01/30 01:42:29;;;;;;;15.27;2.90;;;5.40;99.90;;;;;;5036396;28;20295;-61
2022/01/30 01:44:58;;;;;;;15.20;3.70;;;5.40;99.90;;;;;;5035319;28;20182;-61
2022/01/30 01:47:31;;;;;;;5.50;2.40;;;5.50;99.90;;;;;;5035573;28;20298;-61
2022/01/30 01:49:58;;;;;;;14.60;2.53;;;5.60;99.90;;;;;;5036422;28;20191;-61
2022/01/30 01:52:26;;;;;;;14.45;4.95;;;5.60;99.90;;;;;;5035269;28;20222;-62
2022/01/30 01:54:55;;;;;;;12.90;2.55;;;5.70;99.40;;;;;;5035285;28;20249;-62
2022/01/30 01:57:23;;;;;;;16.35;4.88;;;5.70;98.50;;;;;;5035783;28;20206;-62
2022/01/30 01:59:50;;;;;;;9.85;2.83;;;5.70;98.10;;;;;;5035083;28;20206;-63
2022/01/30 02:02:18;;;;;;;12.45;2.47;;;5.80;97.90;;;;;;5035681;28;20249;-62
2022/01/30 02:04:47;;;;;;;9.20;2.95;;;5.80;97.40;;;;;;5035090;28;20209;-62
2022/01/30 02:10:04;;;;;;;12.35;3.08;;;5.80;97.10;;;;;;5033331;28;20197;-62
2022/01/30 02:12:38;;;;;;;14.55;2.95;;;5.80;97.00;;;;;;5035349;28;20227;-62
2022/01/30 02:15:27;;;;;;;9.98;2.88;;;5.80;96.90;;;;;;5034852;28;20202;-61
2022/01/30 02:26:15;;;;;;;11.10;2.92;;;5.80;97.90;;;;;;5035670;28;20220;-62
2022/01/30 02:28:42;;;;;;;7.60;2.90;;;5.70;98.60;;;;;;5035162;28;20225;-61
2022/01/30 02:31:13;;;;;;;11.10;4.13;;;5.60;99.30;;;;;;5035105;28;20202;-60
2022/01/30 02:33:41;;;;;;;15.02;3.38;;;5.50;99.90;;;;;;5034615;28;20233;-61
2022/01/30 02:36:08;;;;;;;9.70;2.72;;;5.50;99.90;;;;;;5036072;28;20233;-62
2022/01/30 02:38:37;;;;;;;10.90;2.88;;;5.50;99.90;;;;;;5038053;28;20206;-61
2022/01/30 02:41:04;;;;;;;14.60;2.80;;;5.50;99.90;;;;;;5040150;28;20198;-61
2022/01/30 02:43:36;;;;;;;16.00;3.20;;;5.60;99.90;;;;;;5036316;28;20229;-61
2022/01/30 02:46:09;;;;;;;12.68;2.88;;;5.60;99.90;;;;;;5037932;28;20270;-60
2022/01/30 02:48:49;;;;;;;12.05;2.92;;;5.70;99.90;;;;;;5034726;28;20643;-61
2022/01/30 02:51:18;;;;;;;16.10;3.25;;;5.70;99.40;;;;;;5036155;28;20186;-61
2022/01/30 02:53:55;;;;;;;11.32;2.58;;;5.80;99.20;;;;;;5036418;28;20633;-62
2022/01/30 02:56:22;;;;;;;8.98;2.58;;;5.80;99.00;;;;;;5036128;28;20684;-61
2022/01/30 02:58:49;;;;;;;6.00;2.40;;;5.80;98.90;;;;;;5036145;28;20232;-60
2022/01/30 03:01:16;;;;;;;8.38;2.80;;;5.80;99.30;;;;;;5036498;28;20202;-62
2022/01/30 03:03:43;;;;;;;12.20;3.60;;;5.80;99.90;;;;;;5035333;28;20229;-59
2022/01/30 03:06:10;;;;;;;7.65;2.25;;;5.60;99.90;;;;;;5035552;28;20195;-60
2022/01/30 03:08:37;;;;;;;17.50;4.00;;;5.50;99.90;;;;;;5035523;28;20202;-61
2022/01/30 03:11:06;;;;;;;14.00;3.00;;;5.40;99.90;;;;;;5034295;28;20210;-61
2022/01/30 03:13:33;;;;;;;8.15;2.83;;;5.30;99.90;;;;;;5033614;28;20710;-61
2022/01/30 03:16:03;;;;;;;16.02;3.42;;;5.20;99.90;;;;;;5033845;28;20277;-61
2022/01/30 03:18:31;;;;;;;11.10;3.22;;;5.00;99.90;;;;;;5033734;28;20246;-62
2022/01/30 03:20:58;;;;;;;10.32;2.97;;;4.90;99.90;;;;;;5033479;28;20242;-61
2022/01/30 03:23:25;;;;;;;12.18;3.10;;;4.80;99.90;;;;;;5033205;28;20726;-60
2022/01/30 03:25:57;;;;;;;9.15;3.00;;;4.80;99.90;;;;;;5033386;28;20558;-63
2022/01/30 03:28:25;;;;;;;9.98;2.47;;;4.80;99.90;;;;;;5033441;28;20693;-61
2022/01/30 03:30:56;;;;;;;20.00;3.22;;;4.90;99.90;;;;;;5033438;28;20209;-61
2022/01/30 03:33:24;;;;;;;11.88;2.75;;;4.90;99.90;;;;;;5033670;28;20218;-62
2022/01/30 03:35:51;;;;;;;19.30;3.55;;;5.00;99.90;;;;;;5033531;28;20226;-62
2022/01/30 03:38:19;;;;;;;8.38;2.78;;;5.00;99.90;;;;;;5033216;28;20533;-62
2022/01/30 03:40:46;;;;;;;24.75;4.43;;;5.10;99.90;;;;;;5033505;28;20202;-61
2022/01/30 03:43:13;;;;;;;10.68;3.70;;;5.20;99.90;;;;;;5033522;28;20222;-61
2022/01/30 03:45:42;;;;;;;6.38;2.13;;;5.20;99.90;;;;;;5033153;28;20206;-61
2022/01/30 03:48:09;;;;;;;10.85;3.65;;;5.10;99.90;;;;;;5033040;28;20209;-61
2022/01/30 03:50:37;;;;;;;12.75;3.28;;;5.20;99.90;;;;;;5033069;28;20211;-62
2022/01/30 03:53:04;;;;;;;13.18;2.90;;;5.30;99.90;;;;;;5033169;28;20222;-61
2022/01/30 03:55:31;;;;;;;8.48;2.58;;;5.30;99.90;;;;;;5033135;28;20222;-62
2022/01/30 03:57:58;;;;;;;11.70;3.20;;;5.30;99.90;;;;;;5033263;28;20613;-62
2022/01/30 04:00:25;;;;;;;9.88;2.88;;;5.40;99.90;;;;;;5032585;28;20206;-62
2022/01/30 04:02:54;;;;;;;7.43;2.08;;;5.50;99.90;;;;;;5032838;28;20222;-61
2022/01/30 04:05:21;;;;;;;11.70;3.08;;;5.50;99.90;;;;;;5033259;28;20194;-62
2022/01/30 04:09:15;;;;;;;6.97;2.20;;;5.40;99.40;;;;;;5091290;27;20598;-62
2022/01/30 04:11:42;;;;;;;12.98;3.20;;;5.40;99.30;;;;;;5091044;28;20205;-61
2022/01/30 04:14:10;;;;;;;8.50;3.03;;;5.40;99.20;;;;;;5090958;28;20224;-63
2022/01/30 04:16:37;;;;;;;14.75;3.97;;;5.40;99.30;;;;;;5091036;28;20208;-63
2022/01/30 04:19:05;;;;;;;13.05;3.40;;;5.40;99.40;;;;;;5090732;28;20200;-62
2022/01/30 04:21:33;;;;;;;19.80;4.03;;;5.40;99.70;;;;;;5090395;22;20568;-57
2022/01/30 04:24:00;;;;;;;13.82;3.92;;;5.40;99.90;;;;;;5050483;28;20216;-56
2022/01/30 04:26:28;;;;;;;15.80;3.58;;;5.40;99.90;;;;;;5050432;28;20228;-56
2022/01/30 04:28:56;;;;;;;11.23;2.60;;;5.40;99.90;;;;;;5050359;28;20592;-56
2022/01/30 04:31:23;;;;;;;14.43;3.33;;;5.40;99.90;;;;;;5050161;28;20218;-56
2022/01/30 04:33:50;;;;;;;7.32;1.98;;;5.40;99.90;;;;;;5050384;28;20201;-57
2022/01/30 04:36:23;;;;;;;13.98;4.13;;;5.30;99.90;;;;;;5050380;28;20206;-56
2022/01/30 04:38:59;;;;;;;17.90;3.88;;;5.30;99.90;;;;;;5050384;28;20193;-55
2022/01/30 04:41:49;;;;;;;14.65;3.25;;;5.20;99.90;;;;;;5049786;28;20217;-55
2022/01/30 04:58:02;;;;;;;9.57;2.70;;;5.20;99.70;;;;;;5048208;28;20662;-55
2022/01/30 05:00:51;;;;;;;10.70;3.55;;;5.20;99.80;;;;;;5049673;28;20268;-55
2022/01/30 05:03:33;;;;;;;16.25;4.55;;;5.10;99.80;;;;;;5049659;28;20229;-55
2022/01/30 05:06:04;;;;;;;18.85;4.43;;;5.10;99.90;;;;;;5049639;28;20225;-55
2022/01/30 05:08:32;;;;;;;19.00;3.83;;;5.00;99.90;;;;;;5050038;28;20289;-55
2022/01/30 05:11:01;;;;;;;6.93;3.25;;;5.00;99.90;;;;;;5049392;28;20226;-55
2022/01/30 05:13:32;;;;;;;16.90;3.40;;;5.00;99.90;;;;;;5049640;28;20267;-54
2022/01/30 05:16:00;;;;;;;17.10;4.60;;;4.90;99.90;;;;;;5049308;28;20229;-55
2022/01/30 05:18:30;;;;;;;12.45;2.45;;;4.90;99.90;;;;;;5048231;28;20542;-55
2022/01/30 05:20:57;;;;;;;16.38;4.00;;;4.80;99.90;;;;;;5035642;28;20230;-56
2022/01/30 05:23:25;;;;;;;12.77;3.88;;;4.80;99.90;;;;;;5035780;28;20671;-56
2022/01/30 05:25:53;;;;;;;8.52;3.30;;;4.80;99.90;;;;;;5036123;28;20216;-56
2022/01/30 05:28:23;;;;;;;16.92;4.30;;;4.70;99.90;;;;;;5037950;28;20222;-57
2022/01/30 05:30:52;;;;;;;19.67;3.95;;;4.80;99.90;;;;;;5037767;28;20261;-56
2022/01/30 05:33:19;;;;;;;13.27;3.78;;;4.80;99.90;;;;;;5038612;28;20209;-56
2022/01/30 05:35:47;;;;;;;10.43;4.03;;;4.80;99.90;;;;;;5038796;28;20206;-55
2022/01/30 05:38:14;;;;;;;14.38;3.95;;;4.70;99.90;;;;;;5037042;28;20234;-56
2022/01/30 05:40:42;;;;;;;20.63;3.95;;;4.70;99.90;;;;;;5036259;28;20229;-56
2022/01/30 05:43:09;;;;;;;14.13;4.05;;;4.70;99.90;;;;;;5036209;28;20198;-55
2022/01/30 05:45:40;;;;;;;15.18;4.05;;;4.70;99.90;;;;;;5036425;28;20202;-56
2022/01/30 05:48:15;;;;;;;17.63;3.70;;;4.70;99.90;;;;;;5037641;28;20202;-56
2022/01/30 05:50:43;;;;;;;18.00;4.07;;;4.70;99.90;;;;;;5037641;28;20720;-56
2022/01/30 05:53:10;;;;;;;14.73;4.05;;;4.70;99.90;;;;;;5036954;28;20202;-56
2022/01/30 05:55:37;;;;;;;13.70;3.22;;;4.70;99.90;;;;;;5035866;28;20667;-55
2022/01/30 05:58:04;;;;;;;13.05;4.07;;;4.60;99.90;;;;;;5036373;28;20206;-56
2022/01/30 06:00:31;;;;;;;15.85;3.85;;;4.60;99.90;;;;;;5036119;28;20231;-56
2022/01/30 06:02:58;;;;;;;16.75;5.28;;;4.60;99.90;;;;;;5035674;28;20202;-56
2022/01/30 06:05:27;;;;;;;16.80;4.35;;;4.60;99.90;;;;;;5035753;28;20206;-56
2022/01/30 06:07:56;;;;;;;15.05;4.35;;;4.60;99.90;;;;;;5035476;28;20729;-56
2022/01/30 06:10:25;;;;;;;30.55;5.30;;;4.50;99.90;;;;;;5035984;28;20206;-56
2022/01/30 06:12:53;;;;;;;19.45;5.10;;;4.50;99.90;;;;;;5035142;28;20232;-56
2022/01/30 06:15:20;;;;;;;20.52;4.18;;;4.50;99.90;;;;;;5035533;28;20203;-56
2022/01/30 06:17:47;;;;;;;26.88;5.38;;;4.40;99.90;;;;;;5035999;28;20259;-55
2022/01/30 06:20:14;;;;;;;17.83;5.05;;;4.40;99.90;;;;;;5035291;28;20206;-56
2022/01/30 06:22:43;;;;;;;23.80;4.93;;;4.40;99.90;;;;;;5035007;28;20241;-55
2022/01/30 06:25:11;;;;;;;19.27;5.40;;;4.40;99.90;;;;;;5035270;28;20206;-56
2022/01/30 06:27:38;;;;;;;15.45;4.50;;;4.40;99.90;;;;;;5034984;28;20203;-55
2022/01/30 06:30:09;;;;;;;16.35;3.78;;;4.30;99.90;;;;;;5035134;28;20209;-56
2022/01/30 06:32:37;;;;;;;24.30;5.22;;;4.30;99.90;;;;;;5034911;28;20193;-55
2022/01/30 06:35:04;;;;;;;23.38;5.13;;;4.30;99.90;;;;;;5035978;28;20276;-56
2022/01/30 06:37:32;;;;;;;22.52;5.20;;;4.30;99.90;;;;;;5036319;28;20199;-56
2022/01/30 06:40:01;;;;;;;15.50;5.50;;;4.30;99.90;;;;;;5035480;28;20198;-56
2022/01/30 06:42:29;;;;;;;20.75;4.50;;;4.20;99.90;;;;;;5035063;28;20268;-53
2022/01/30 06:44:57;;;;;;;17.25;4.50;;;4.30;99.90;;;;;;5035409;28;20206;-54
2022/01/30 06:47:24;;;;;;;15.77;4.07;;;4.30;99.90;;;;;;5035069;28;20679;-54
2022/01/30 06:49:52;;;;;;;16.50;5.50;;;4.30;99.90;;;;;;5034846;28;20262;-54
2022/01/30 06:52:19;;;;;;;19.45;4.53;;;4.30;99.90;;;;;;5034768;28;20313;-54
2022/01/30 06:54:46;;;;;;;24.55;5.05;;;4.30;99.90;;;;;;5034793;28;20294;-55
2022/01/30 06:57:15;;;;;;;22.48;5.28;;;4.30;99.90;;;;;;5034702;28;20234;-54
2022/01/30 06:59:42;;;;;;;18.92;4.97;;;4.30;99.90;;;;;;5034447;28;20259;-54
2022/01/30 07:02:10;;;;;;;8.82;3.70;;;4.30;99.90;;;;;;5034173;28;20229;-55
2022/01/30 07:04:37;;;;;;;19.02;5.93;;;4.30;99.90;;;;;;5034250;28;20213;-55
2022/01/30 07:07:05;;;;;;;18.20;4.53;;;4.30;99.90;;;;;;5034199;28;20206;-55
2022/01/30 07:09:32;;;;;;;14.10;4.18;;;4.30;99.90;;;;;;5033899;28;20218;-55
2022/01/30 07:12:00;;;;;;;13.18;2.85;;;4.30;99.90;;;;;;5034177;28;20732;-55
2022/01/30 07:14:29;;;;;;;15.23;5.18;;;4.40;99.90;;;;;;5034440;28;20289;-55
2022/01/30 07:16:56;;;;;;;22.15;6.28;;;4.40;99.90;;;;;;5034363;28;20228;-56
2022/01/30 07:19:23;;;;;;;17.00;4.60;;;4.40;99.60;;;;;;5034553;28;20201;-56
2022/01/30 07:21:50;;;;;;;21.95;4.38;;;4.50;99.30;;;;;;5034693;28;20230;-59
2022/01/30 07:24:17;;;;;;;16.05;5.47;;;4.50;99.00;;;;;;5034660;28;20671;-57
2022/01/30 07:26:44;;;;;;;18.42;3.75;;;4.50;98.70;;;;;;5033862;28;20209;-55
2022/01/30 07:29:12;;;;;;;18.52;4.03;;;4.50;98.10;;;;;;5033814;28;20226;-55
2022/01/30 07:31:40;;;;;;;18.52;5.35;;;4.50;97.70;;;;;;5033403;28;20221;-55
2022/01/30 07:34:07;;;;;;;31.58;5.45;;;4.60;97.40;;;;;;5033476;28;20548;-55
2022/01/30 07:36:36;;;;;;;23.13;6.70;;;4.70;96.90;;;;;;5033872;28;20563;-55
2022/01/30 07:39:06;;;;;;;22.23;6.32;;;4.70;96.70;;;;;;5033627;28;20209;-55
2022/01/30 07:41:33;;;;;;;25.10;4.35;;;4.70;96.30;;;;;;5033865;28;20230;-55
2022/01/30 07:44:01;;;;;;;24.23;5.28;;;4.80;96.10;;;;;;5034053;28;20225;-55
2022/01/30 07:46:28;;;;;;;16.95;4.68;;;4.80;95.90;;;;;;5033818;28;20203;-55
2022/01/30 07:48:57;;;;;;;14.52;4.38;;;4.90;95.90;;;;;;5034095;28;20222;-53
2022/01/30 07:51:24;;;;;;;15.20;5.30;;;4.90;95.70;;;;;;5034178;28;20244;-56
2022/01/30 07:53:51;;;;;;;22.10;5.70;;;4.90;95.60;;;;;;5033933;28;20213;-56
2022/01/30 07:56:18;;;;;;;18.17;4.90;;;4.90;95.50;;;;;;5033876;28;20206;-55
2022/01/30 07:58:46;;;;;;;26.67;5.03;;;4.90;95.50;;;;;;5034433;28;20290;-55
2022/01/30 08:01:13;;;;;;;16.40;3.97;;;4.90;95.40;;;;;;5034281;28;20232;-55
2022/01/30 08:03:40;;;;;;;24.67;5.95;;;5.00;95.30;;;;;;5034089;28;20289;-55
2022/01/30 08:06:08;;;;;;;27.08;5.15;;;5.00;94.90;;;;;;5033978;28;20205;-56
2022/01/30 08:08:36;;;;;;;25.58;6.25;;;5.10;94.40;;;;;;5033772;28;20225;-56
2022/01/30 08:11:03;;;;;;;17.25;5.28;;;5.10;94.40;;;;;;5033792;28;20223;-55
2022/01/30 08:13:30;;;;;;;25.20;4.80;;;5.20;93.80;;;;;;5033981;28;20233;-56
2022/01/30 08:15:58;;;;;;;11.60;3.45;;;5.20;93.20;;;;;;5034107;28;20237;-56
2022/01/30 08:18:25;;;;;;;16.35;4.78;;;5.30;92.70;;;;;;5033875;28;20205;-56
2022/01/30 08:20:54;;;;;;;26.02;6.95;;;5.30;91.80;;;;;;5034654;28;20234;-56
2022/01/30 08:23:24;;;;;;;24.48;5.30;;;5.40;91.80;;;;;;5033781;28;20259;-56
2022/01/30 08:25:51;;;;;;;15.18;3.95;;;5.40;91.10;;;;;;5033563;28;20203;-56
2022/01/30 08:28:18;;;;;;;17.83;4.18;;;5.40;90.50;;;;;;5033072;28;20292;-56
2022/01/30 08:30:45;;;;;;;17.67;4.57;;;5.50;89.30;;;;;;5033868;28;20232;-55
2022/01/30 08:33:15;;;;;;;14.98;4.15;;;5.60;88.40;;;;;;5033923;28;20667;-55
2022/01/30 08:35:43;;;;;;;13.07;4.10;;;5.60;86.60;;;;;;5033915;28;20225;-56
2022/01/30 08:38:13;;;;;;;14.45;3.97;;;5.70;86.00;;;;;;5033936;28;20282;-56
2022/01/30 08:40:41;;;;;;;16.85;5.55;;;5.70;85.40;;;;;;5033985;28;20228;-56
2022/01/30 08:43:08;;;;;;;11.20;3.60;;;5.70;82.70;;;;;;5033829;28;20578;-56
2022/01/30 08:45:35;;;;;;;18.83;4.43;;;5.80;81.80;;;;;;5033220;28;20208;-56
2022/01/30 08:48:03;;;;;;;15.48;5.00;;;5.80;80.50;;;;;;5033348;28;20728;-56
2022/01/30 08:50:30;;;;;;;19.70;5.38;;;5.80;79.60;;;;;;5032748;28;20234;-55
2022/01/30 08:52:57;;;;;;;13.55;3.72;;;5.80;77.90;;;;;;5033047;28;20213;-56
2022/01/30 08:55:26;;;;;;;17.08;4.75;;;5.90;77.80;;;;;;5036457;28;20573;-55
2022/01/30 08:57:55;;;;;;;13.38;4.72;;;5.90;77.40;;;;;;5037046;28;20209;-56
2022/01/30 09:00:22;;;;;;;16.83;5.15;;;5.90;77.30;;;;;;5036440;28;20623;-56
2022/01/30 09:02:50;;;;;;;15.48;4.20;;;5.90;77.10;;;;;;5036882;28;20813;-57
2022/01/30 09:05:17;;;;;;;16.20;4.35;;;5.90;77.30;;;;;;5036750;28;20481;-56
2022/01/30 09:07:44;;;;;;;21.10;5.43;;;5.90;77.60;;;;;;5036458;28;20198;-58
2022/01/30 09:10:13;;;;;;;24.55;5.20;;;5.90;77.90;;;;;;5036612;28;20231;-59
2022/01/30 09:12:40;;;;;;;13.52;5.25;;;5.90;78.30;;;;;;5036077;28;20209;-57
2022/01/30 09:15:13;;;;;;;15.52;4.72;;;5.90;78.80;;;;;;5035855;28;20206;-59
2022/01/30 09:17:41;;;;;;;29.60;7.05;;;5.90;79.20;;;;;;5036311;28;20220;-58
2022/01/30 09:20:09;;;;;;;19.10;5.50;;;5.90;79.60;;;;;;5035869;28;20674;-59
2022/01/30 09:22:37;;;;;;;19.10;5.55;;;5.90;79.50;;;;;;5036319;28;20214;-57
2022/01/30 09:25:04;;;;;;;17.92;4.20;;;5.90;78.90;;;;;;5036069;28;20199;-57
2022/01/30 09:27:32;;;;;;;21.13;5.18;;;5.90;78.90;;;;;;5036075;28;20213;-59
2022/01/30 09:29:59;;;;;;;18.00;4.82;;;5.90;78.90;;;;;;5036324;28;20789;-58
2022/01/30 09:32:28;;;;;;;20.55;5.85;;;5.90;78.40;;;;;;5036231;28;20218;-56
2022/01/30 09:34:56;;;;;;;23.00;5.30;;;5.90;79.10;;;;;;5036173;28;20654;-58
2022/01/30 09:37:24;;;;;;;24.65;5.72;;;6.00;79.50;;;;;;5036449;28;20226;-58
2022/01/30 09:39:51;;;;;;;13.10;4.35;;;6.10;79.10;;;;;;5036024;28;20198;-59
2022/01/30 09:42:18;;;;;;;20.00;5.18;;;6.10;79.00;;;;;;5035923;28;20233;-56
2022/01/30 09:44:45;;;;;;;12.60;4.35;;;6.10;78.90;;;;;;5036166;28;20207;-58
2022/01/30 09:47:16;;;;;;;21.58;6.03;;;6.20;78.40;;;;;;5036362;28;20217;-57
2022/01/30 09:49:48;;;;;;;21.60;5.10;;;6.20;78.40;;;;;;5036126;28;20226;-58
2022/01/30 09:52:15;;;;;;;14.95;4.80;;;6.30;78.10;;;;;;5035906;28;20225;-58
2022/01/30 09:54:42;;;;;;;21.25;5.10;;;6.30;77.10;;;;;;5035903;28;20202;-57
2022/01/30 09:57:09;;;;;;;13.93;3.70;;;6.30;76.80;;;;;;5035605;28;20213;-57
2022/01/30 09:59:36;;;;;;;16.20;4.82;;;6.30;75.70;;;;;;5035747;28;20203;-56
2022/01/30 10:02:05;;;;;;;10.85;3.85;;;6.40;75.70;;;;;;5036392;28;20227;-58
2022/01/30 10:04:32;;;;;;;21.98;5.78;;;6.30;75.10;;;;;;5035475;28;20209;-59
2022/01/30 10:07:05;;;;;;;18.52;4.95;;;6.30;75.60;;;;;;5035332;28;20206;-59
2022/01/30 10:09:36;;;;;;;19.05;4.40;;;6.30;76.00;;;;;;5035152;28;20206;-56
2022/01/30 10:12:14;;;;;;;22.15;5.00;;;6.30;76.20;;;;;;5035342;28;20276;-57
2022/01/30 10:14:59;;;;;;;23.13;4.93;;;6.30;76.50;;;;;;5035249;28;20186;-57
2022/01/30 10:17:32;;;;;;;17.20;6.53;;;6.40;76.70;;;;;;5034738;28;20183;-57
2022/01/30 10:20:10;;;;;;;17.35;4.30;;;6.40;76.50;;;;;;5034922;28;20187;-57
2022/01/30 10:22:48;;;;;;;12.07;4.70;;;6.40;75.70;;;;;;5035515;28;20194;-57
2022/01/30 10:25:20;;;;;;;23.63;6.15;;;6.40;76.00;;;;;;5035040;28;20191;-57
2022/01/30 10:27:47;;;;;;;15.35;4.00;;;6.40;76.00;;;;;;5034608;28;20229;-57
2022/01/30 10:30:21;;;;;;;12.38;5.15;;;6.40;75.10;;;;;;5034531;28;20233;-58
2022/01/30 10:32:55;;;;;;;16.10;4.18;;;6.50;74.90;;;;;;5034965;28;20209;-58
2022/01/30 10:35:22;;;;;;;22.00;4.95;;;6.50;75.10;;;;;;5034948;28;20244;-56
2022/01/30 10:37:51;;;;;;;18.73;4.57;;;6.60;75.20;;;;;;5034507;28;20203;-56
2022/01/30 10:40:23;;;;;;;22.08;5.72;;;6.60;74.10;;;;;;5034243;28;20575;-56
2022/01/30 10:42:52;;;;;;;24.52;5.65;;;6.60;72.60;;;;;;5034522;28;20576;-57
2022/01/30 10:45:28;;;;;;;20.98;5.07;;;6.60;72.20;;;;;;5034690;28;20207;-58
2022/01/30 10:48:10;;;;;;;18.58;4.75;;;6.60;72.40;;;;;;5034958;28;20214;-57
2022/01/30 10:50:40;;;;;;;18.50;4.25;;;6.60;72.70;;;;;;5033943;28;20713;-58
2022/01/30 10:53:18;;;;;;;23.42;6.03;;;6.70;72.90;;;;;;5034268;28;20229;-57
2022/01/30 10:55:47;;;;;;;18.67;5.63;;;6.70;72.70;;;;;;5034453;28;20213;-56
2022/01/30 10:58:16;;;;;;;27.02;6.85;;;6.70;72.90;;;;;;5034451;28;20648;-55
2022/01/30 11:00:48;;;;;;;12.25;4.28;;;6.70;73.10;;;;;;5034184;28;20222;-55
2022/01/30 11:03:38;;;;;;;21.02;5.72;;;6.70;72.90;;;;;;5034241;28;20183;-57
2022/01/30 11:06:10;;;;;;;25.50;7.07;;;6.70;73.20;;;;;;5030242;28;20210;-57
2022/01/30 11:08:42;;;;;;;20.95;5.35;;;6.70;73.20;;;;;;5034211;28;20186;-57
2022/01/30 11:11:18;;;;;;;17.95;5.03;;;6.70;73.50;;;;;;5033645;28;20234;-59
2022/01/30 11:13:59;;;;;;;20.48;7.03;;;6.70;74.10;;;;;;5033727;28;20190;-56
2022/01/30 11:19:12;;;;;;;19.08;5.78;;;6.70;74.00;;;;;;5034011;28;20217;-57
2022/01/30 11:21:40;;;;;;;18.77;5.00;;;6.80;74.60;;;;;;5033275;28;20694;-57
2022/01/30 11:24:10;;;;;;;24.20;6.40;;;6.70;74.30;;;;;;5033733;28;20202;-57
2022/01/30 11:26:38;;;;;;;17.67;5.72;;;6.70;74.30;;;;;;5033792;28;20214;-58
2022/01/30 11:29:08;;;;;;;19.65;6.55;;;6.70;74.90;;;;;;5033389;28;20229;-57
2022/01/30 11:31:36;;;;;;;22.83;5.82;;;6.60;75.50;;;;;;5033591;28;20222;-58
2022/01/30 11:34:03;;;;;;;22.70;6.25;;;6.60;76.00;;;;;;5033681;28;20209;-56
2022/01/30 11:36:32;;;;;;;25.75;6.10;;;6.70;76.20;;;;;;5033910;28;20209;-58
2022/01/30 11:39:01;;;;;;;25.98;6.43;;;6.70;76.40;;;;;;5033320;28;20670;-57
2022/01/30 11:41:31;;;;;;;30.95;6.40;;;6.70;76.60;;;;;;5033273;28;20218;-58
2022/01/30 11:44:29;;;;;;;24.35;7.10;;;6.70;76.70;;;;;;5033651;28;20186;-58
2022/01/30 11:47:19;;;;;;;21.10;4.60;;;6.70;76.70;;;;;;5033617;28;20190;-57
2022/01/30 11:49:50;;;;;;;28.95;6.75;;;6.70;76.70;;;;;;5033883;28;20233;-57
2022/01/30 11:52:18;;;;;;;20.15;5.40;;;6.70;76.30;;;;;;5033743;28;20226;-58
2022/01/30 11:54:47;;;;;;;23.92;7.15;;;6.60;75.60;;;;;;5033707;28;20206;-57
2022/01/30 11:57:47;;;;;;;27.50;5.80;;;6.60;74.70;;;;;;5033736;28;20674;-57
2022/01/30 12:00:37;;;;;;;19.70;6.32;;;6.60;74.00;;;;;;5033460;28;20197;-57
2022/01/30 12:03:25;;;;;;;18.60;5.05;;;6.70;72.30;;;;;;5025973;28;20210;-57
2022/01/30 12:05:53;;;;;;;19.48;5.38;;;6.70;71.10;;;;;;5033260;28;20540;-58
2022/01/30 12:08:46;;;;;;;17.50;5.65;;;6.70;69.50;;;;;;5033223;28;20552;-60
2022/01/30 12:11:51;;;;;;;19.75;6.40;;;6.80;67.40;;;;;;5033125;28;20258;-58
2022/01/30 12:14:45;;;;;;;14.88;5.25;;;6.80;65.60;;;;;;5033420;28;20244;-58
2022/01/30 12:17:13;;;;;;;25.73;5.13;;;6.90;63.90;;;;;;5033411;28;20266;-57
2022/01/30 12:20:05;;;;;;;27.45;5.65;;;6.80;63.10;;;;;;5033917;28;20245;-56
2022/01/30 12:22:41;;;;;;;18.63;6.20;;;6.80;63.50;;;;;;5032876;28;20721;-55
2022/01/30 12:25:34;;;;;;;19.27;5.78;;;6.80;63.80;;;;;;5033650;28;20726;-57
2022/01/30 12:28:07;;;;;;;16.48;4.35;;;6.80;63.40;;;;;;5033512;28;20206;-56
2022/01/30 12:30:42;;;;;;;18.77;6.43;;;6.80;62.80;;;;;;5035829;28;20232;-56
2022/01/30 12:33:42;;;;;;;19.83;4.85;;;6.80;63.10;;;;;;5037041;28;20191;-56
2022/01/30 12:36:18;;;;;;;17.10;4.55;;;6.80;62.90;;;;;;5037397;28;20190;-56
2022/01/30 12:38:45;;;;;;;15.60;5.13;;;6.80;62.30;;;;;;5037508;28;20248;-57
2022/01/30 12:41:17;;;;;;;26.45;5.97;;;6.80;62.70;;;;;;5037087;28;20218;-57
2022/01/30 12:43:45;;;;;;;21.92;5.22;;;6.90;62.80;;;;;;5037007;28;20666;-57
2022/01/30 12:46:14;;;;;;;20.77;5.70;;;6.80;62.70;;;;;;5036990;28;20209;-57
2022/01/30 12:48:42;;;;;;;24.85;6.75;;;6.80;63.10;;;;;;5037121;28;20497;-55
2022/01/30 12:51:14;;;;;;;23.40;6.10;;;6.80;63.30;;;;;;5036166;28;20260;-56
2022/01/30 12:53:42;;;;;;;21.33;6.32;;;6.80;63.50;;;;;;5036283;28;20187;-57
2022/01/30 12:56:10;;;;;;;19.92;6.38;;;6.80;63.70;;;;;;5036707;28;20289;-56
2022/01/30 12:58:45;;;;;;;20.15;5.30;;;6.80;62.90;;;;;;5036472;28;20226;-56
2022/01/30 13:01:15;;;;;;;30.05;6.18;;;6.80;62.20;;;;;;5036177;28;20240;-56
2022/01/30 13:03:42;;;;;;;20.88;4.88;;;6.80;61.40;;;;;;5036416;28;20233;-56
2022/01/30 13:06:09;;;;;;;18.75;4.90;;;6.90;61.00;;;;;;5035969;28;20607;-55
2022/01/30 13:08:46;;;;;;;19.98;5.35;;;6.90;61.00;;;;;;5035899;28;20570;-57
2022/01/30 13:11:22;;;;;;;25.08;6.18;;;6.90;61.10;;;;;;5036140;28;20329;-56
2022/01/30 13:14:01;;;;;;;16.98;6.35;;;7.00;61.40;;;;;;5035960;28;20201;-56
2022/01/30 13:16:36;;;;;;;28.17;5.60;;;7.00;61.30;;;;;;5036284;28;20198;-56
2022/01/30 13:19:06;;;;;;;21.52;5.63;;;7.00;61.70;;;;;;5035905;28;20201;-57
2022/01/30 13:21:34;;;;;;;28.42;6.03;;;7.00;62.00;;;;;;5035923;28;20227;-57
2022/01/30 13:24:03;;;;;;;24.13;6.35;;;7.00;62.60;;;;;;5035960;28;20206;-56
2022/01/30 13:26:39;;;;;;;25.20;6.38;;;6.90;63.40;;;;;;5035445;28;20682;-56
2022/01/30 13:29:12;;;;;;;26.60;7.68;;;6.90;63.90;;;;;;5036101;28;20214;-57
2022/01/30 13:31:42;;;;;;;38.78;7.18;;;6.90;64.00;;;;;;5035523;28;20237;-56
2022/01/30 13:34:22;;;;;;;20.05;5.72;;;6.90;63.80;;;;;;5035716;28;20260;-56
2022/01/30 13:36:55;;;;;;;27.70;4.70;;;7.00;61.90;;;;;;5035358;28;20183;-56
2022/01/30 13:39:28;;;;;;;30.42;6.80;;;7.00;61.30;;;;;;5035960;28;20194;-56
2022/01/30 13:42:17;;;;;;;28.77;6.47;;;6.90;60.90;;;;;;5035563;28;20230;-56